createdAt,value
2023-02-17T00:00:03.930Z,92.16
2023-02-17T00:01:03.924Z,92.16
2023-02-17T00:02:03.914Z,91.95
2023-02-17T00:03:03.887Z,91.85
2023-02-17T00:04:03.870Z,92.16
2023-02-17T00:05:03.873Z,92.05
2023-02-17T00:06:04.137Z,92.25
2023-02-17T00:07:03.863Z,92.05
2023-02-17T00:08:03.854Z,92.36
2023-02-17T00:09:03.834Z,92.36
2023-02-17T00:10:03.828Z,92.36
2023-02-17T00:11:03.803Z,91.85
2023-02-17T00:12:03.804Z,92.05
2023-02-17T00:13:03.792Z,91.74
2023-02-17T00:14:03.767Z,91.74
2023-02-17T00:15:03.745Z,91.74
2023-02-17T00:16:04.318Z,92.36
2023-02-17T00:17:03.781Z,92.16
2023-02-17T00:18:03.722Z,92.25
2023-02-17T00:19:03.761Z,92.25
2023-02-17T00:20:03.693Z,91.95
2023-02-17T00:21:03.702Z,91.95
2023-02-17T00:22:03.684Z,92.16
2023-02-17T00:23:03.660Z,92.16
2023-02-17T00:24:03.655Z,91.95
2023-02-17T00:25:03.636Z,92.16
2023-02-17T00:26:03.847Z,92.16
2023-02-17T00:27:03.677Z,92.25
2023-02-17T00:28:03.618Z,91.74
2023-02-17T00:29:03.614Z,91.74
2023-02-17T00:30:03.657Z,92.25
2023-02-17T00:31:03.671Z,92.25
2023-02-17T00:32:03.763Z,92.05
2023-02-17T00:33:03.569Z,92.05
2023-02-17T00:34:03.535Z,91.95
2023-02-17T00:35:03.531Z,92.05
2023-02-17T00:36:03.878Z,92.77
2023-02-17T00:37:03.523Z,92.67
2023-02-17T00:38:03.498Z,92.46
2023-02-17T00:39:03.484Z,92.46
2023-02-17T00:40:03.475Z,92.25
2023-02-17T00:41:03.483Z,92.46
2023-02-17T00:42:03.479Z,92.46
2023-02-17T00:43:03.447Z,92.46
2023-02-17T00:44:03.447Z,92.57
2023-02-17T00:45:03.422Z,92.46
2023-02-17T00:46:03.784Z,92.36
2023-02-17T00:47:03.405Z,92.61
2023-02-17T00:48:03.417Z,92.61
2023-02-17T00:49:03.410Z,92.61
2023-02-17T00:50:03.357Z,93.08
2023-02-17T00:51:03.364Z,93.33
2023-02-17T00:52:03.339Z,92.87
2023-02-17T00:53:03.322Z,92.50
2023-02-17T00:54:03.383Z,93.02
2023-02-17T00:55:03.310Z,93.43
2023-02-17T00:56:03.718Z,92.92
2023-02-17T00:57:03.291Z,93.29
2023-02-17T00:58:03.284Z,93.33
2023-02-17T00:59:03.292Z,93.33
2023-02-17T01:00:03.245Z,93.54
2023-02-17T01:01:03.238Z,92.92
2023-02-17T01:02:03.263Z,92.82
2023-02-17T01:03:03.217Z,93.23
2023-02-17T01:04:03.208Z,93.43
2023-02-17T01:05:03.307Z,93.33
2023-02-17T01:06:03.457Z,93.02
2023-02-17T01:07:03.174Z,94.26
2023-02-17T01:08:03.152Z,94.26
2023-02-17T01:09:03.153Z,94.26
2023-02-17T01:10:03.168Z,94.98
2023-02-17T01:11:03.150Z,94.56
2023-02-17T01:12:03.119Z,94.56
2023-02-17T01:13:03.106Z,94.81
2023-02-17T01:14:03.114Z,95.39
2023-02-17T01:15:03.084Z,95.18
2023-02-17T01:16:03.348Z,94.98
2023-02-17T01:17:03.065Z,94.77
2023-02-17T01:18:03.083Z,94.77
2023-02-17T01:19:03.031Z,94.77
2023-02-17T01:20:03.033Z,94.67
2023-02-17T01:21:03.030Z,94.77
2023-02-17T01:22:03.003Z,94.77
2023-02-17T01:23:02.990Z,94.77
2023-02-17T01:24:03.036Z,95.18
2023-02-17T01:25:02.973Z,95.08
2023-02-17T01:26:03.247Z,95.08
2023-02-17T01:27:02.946Z,94.67
2023-02-17T01:28:02.932Z,94.67
2023-02-17T01:29:02.922Z,95.18
2023-02-17T01:30:03.001Z,94.56
2023-02-17T01:31:03.124Z,94.87
2023-02-17T01:32:02.977Z,94.67
2023-02-17T01:33:02.883Z,94.98
2023-02-17T01:34:02.875Z,94.98
2023-02-17T01:35:02.891Z,94.98
2023-02-17T01:36:03.004Z,94.98
2023-02-17T01:37:02.861Z,94.87
2023-02-17T01:38:02.834Z,94.56
2023-02-17T01:39:02.811Z,94.56
2023-02-17T01:40:02.836Z,94.98
2023-02-17T01:41:02.833Z,94.05
2023-02-17T01:42:02.784Z,94.05
2023-02-17T01:43:02.785Z,93.74
2023-02-17T01:44:02.748Z,93.95
2023-02-17T01:45:02.748Z,94.05
2023-02-17T01:46:02.735Z,94.15
2023-02-17T01:47:02.730Z,93.95
2023-02-17T01:48:02.736Z,94.01
2023-02-17T01:49:02.693Z,93.80
2023-02-17T01:50:02.681Z,93.70
2023-02-17T01:51:02.675Z,93.80
2023-02-17T01:52:02.655Z,93.90
2023-02-17T01:53:02.692Z,93.80
2023-02-17T01:54:02.635Z,94.01
2023-02-17T01:55:02.640Z,93.29
2023-02-17T01:56:02.619Z,93.29
2023-02-17T01:57:02.615Z,93.59
2023-02-17T01:58:02.588Z,93.29
2023-02-17T01:59:02.576Z,93.49
2023-02-17T02:00:02.567Z,93.49
2023-02-17T02:01:02.573Z,93.43
2023-02-17T02:02:02.752Z,93.49
2023-02-17T02:03:02.598Z,93.08
2023-02-17T02:04:02.531Z,93.29
2023-02-17T02:05:02.507Z,93.39
2023-02-17T02:06:02.670Z,93.29
2023-02-17T02:07:02.515Z,93.39
2023-02-17T02:08:02.475Z,93.49
2023-02-17T02:09:02.493Z,93.39
2023-02-17T02:10:02.458Z,93.59
2023-02-17T02:11:02.450Z,93.39
2023-02-17T02:12:02.460Z,93.49
2023-02-17T02:13:02.421Z,93.59
2023-02-17T02:14:02.416Z,93.39
2023-02-17T02:15:02.401Z,93.49
2023-02-17T02:16:02.407Z,93.35
2023-02-17T02:17:02.440Z,93.39
2023-02-17T02:18:02.369Z,93.55
2023-02-17T02:19:02.359Z,93.55
2023-02-17T02:20:02.343Z,93.35
2023-02-17T02:21:02.354Z,93.76
2023-02-17T02:22:02.369Z,93.76
2023-02-17T02:23:02.328Z,93.80
2023-02-17T02:24:02.301Z,93.59
2023-02-17T02:25:02.306Z,93.44
2023-02-17T02:26:02.278Z,93.24
2023-02-17T02:27:02.291Z,93.04
2023-02-17T02:28:02.263Z,93.76
2023-02-17T02:29:02.243Z,93.65
2023-02-17T02:30:02.269Z,93.96
2023-02-17T02:31:02.229Z,94.07
2023-02-17T02:32:02.320Z,94.07
2023-02-17T02:33:02.224Z,93.86
2023-02-17T02:34:02.192Z,93.86
2023-02-17T02:35:02.184Z,92.93
2023-02-17T02:36:02.162Z,93.14
2023-02-17T02:37:02.157Z,93.04
2023-02-17T02:38:02.157Z,93.04
2023-02-17T02:39:02.163Z,93.14
2023-02-17T02:40:02.127Z,93.35
2023-02-17T02:41:02.139Z,93.76
2023-02-17T02:42:02.118Z,93.96
2023-02-17T02:43:02.125Z,94.07
2023-02-17T02:44:02.103Z,93.86
2023-02-17T02:45:02.087Z,93.76
2023-02-17T02:46:02.194Z,94.07
2023-02-17T02:47:02.062Z,93.86
2023-02-17T02:48:02.050Z,94.07
2023-02-17T02:49:02.028Z,94.17
2023-02-17T02:50:02.027Z,94.07
2023-02-17T02:51:02.002Z,94.17
2023-02-17T02:52:01.987Z,93.96
2023-02-17T02:53:02.001Z,93.96
2023-02-17T02:54:01.964Z,93.96
2023-02-17T02:55:01.950Z,93.92
2023-02-17T02:56:01.945Z,93.71
2023-02-17T02:57:01.957Z,93.92
2023-02-17T02:58:01.950Z,93.86
2023-02-17T02:59:01.910Z,93.96
2023-02-17T03:00:01.901Z,93.92
2023-02-17T03:01:01.957Z,93.92
2023-02-17T03:02:01.897Z,93.96
2023-02-17T03:03:01.909Z,93.86
2023-02-17T03:04:01.962Z,93.86
2023-02-17T03:05:01.840Z,93.61
2023-02-17T03:06:01.863Z,93.71
2023-02-17T03:07:01.855Z,93.71
2023-02-17T03:08:01.834Z,93.76
2023-02-17T03:09:01.829Z,93.82
2023-02-17T03:10:01.788Z,93.71
2023-02-17T03:11:01.771Z,93.96
2023-02-17T03:12:01.763Z,94.64
2023-02-17T03:13:01.795Z,94.68
2023-02-17T03:14:01.760Z,94.74
2023-02-17T03:15:01.725Z,94.78
2023-02-17T03:16:01.718Z,94.68
2023-02-17T03:17:01.714Z,94.78
2023-02-17T03:18:01.704Z,94.58
2023-02-17T03:19:01.703Z,94.58
2023-02-17T03:20:01.669Z,94.68
2023-02-17T03:21:01.661Z,95.20
2023-02-17T03:22:01.654Z,94.99
2023-02-17T03:23:01.644Z,94.99
2023-02-17T03:24:01.660Z,94.58
2023-02-17T03:25:01.613Z,94.78
2023-02-17T03:26:01.610Z,95.20
2023-02-17T03:27:01.588Z,94.89
2023-02-17T03:28:01.592Z,94.99
2023-02-17T03:29:01.614Z,94.99
2023-02-17T03:30:01.595Z,94.68
2023-02-17T03:31:01.582Z,94.99
2023-02-17T03:32:01.577Z,94.58
2023-02-17T03:33:01.522Z,94.68
2023-02-17T03:34:01.549Z,94.89
2023-02-17T03:35:01.532Z,94.58
2023-02-17T03:36:01.510Z,94.99
2023-02-17T03:37:01.487Z,94.99
2023-02-17T03:38:01.479Z,94.89
2023-02-17T03:39:01.460Z,94.99
2023-02-17T03:40:01.470Z,94.78
2023-02-17T03:41:01.474Z,94.89
2023-02-17T03:42:01.442Z,94.89
2023-02-17T03:43:01.408Z,94.78
2023-02-17T03:44:01.400Z,94.89
2023-02-17T03:45:01.439Z,94.74
2023-02-17T03:46:01.447Z,94.78
2023-02-17T03:47:01.371Z,94.89
2023-02-17T03:48:01.376Z,94.99
2023-02-17T03:49:01.346Z,94.89
2023-02-17T03:50:01.359Z,94.89
2023-02-17T03:51:01.334Z,94.74
2023-02-17T03:52:01.312Z,94.95
2023-02-17T03:53:01.306Z,95.05
2023-02-17T03:54:01.299Z,94.74
2023-02-17T03:55:01.287Z,94.95
2023-02-17T03:56:01.282Z,94.95
2023-02-17T03:57:01.258Z,94.74
2023-02-17T03:58:01.243Z,94.54
2023-02-17T03:59:01.228Z,94.54
2023-02-17T04:00:01.219Z,94.64
2023-02-17T04:01:01.308Z,94.43
2023-02-17T04:02:01.195Z,94.54
2023-02-17T04:03:01.195Z,94.54
2023-02-17T04:04:01.205Z,94.64
2023-02-17T04:05:01.157Z,94.95
2023-02-17T04:06:01.168Z,95.25
2023-02-17T04:07:01.141Z,94.33
2023-02-17T04:08:01.132Z,94.23
2023-02-17T04:09:01.136Z,94.64
2023-02-17T04:10:02.662Z,94.84
2023-02-17T04:11:01.125Z,94.95
2023-02-17T04:12:01.093Z,94.64
2023-02-17T04:13:01.074Z,94.54
2023-02-17T04:14:01.084Z,94.74
2023-02-17T04:15:01.072Z,94.59
2023-02-17T04:16:01.139Z,94.80
2023-02-17T04:17:01.063Z,94.90
2023-02-17T04:18:01.010Z,94.80
2023-02-17T04:19:01.001Z,94.59
2023-02-17T04:20:01.007Z,95.01
2023-02-17T04:21:01.011Z,94.59
2023-02-17T04:22:00.993Z,94.59
2023-02-17T04:23:00.955Z,95.05
2023-02-17T04:24:00.954Z,94.90
2023-02-17T04:25:00.945Z,94.90
2023-02-17T04:26:00.953Z,94.95
2023-02-17T04:27:00.914Z,94.80
2023-02-17T04:28:00.906Z,94.90
2023-02-17T04:29:00.890Z,94.90
2023-02-17T04:30:00.903Z,94.84
2023-02-17T04:31:01.008Z,95.10
2023-02-17T04:32:00.972Z,95.25
2023-02-17T04:33:00.922Z,95.21
2023-02-17T04:34:00.837Z,95.05
2023-02-17T04:35:00.840Z,94.95
2023-02-17T04:36:00.845Z,94.95
2023-02-17T04:37:00.828Z,94.90
2023-02-17T04:38:00.793Z,94.84
2023-02-17T04:39:00.775Z,94.70
2023-02-17T04:40:00.780Z,94.29
2023-02-17T04:41:00.756Z,94.39
2023-02-17T04:42:00.770Z,95.01
2023-02-17T04:43:00.736Z,95.10
2023-02-17T04:44:00.720Z,95.10
2023-02-17T04:45:00.723Z,95.01
2023-02-17T04:46:00.756Z,95.10
2023-02-17T04:47:00.769Z,94.59
2023-02-17T04:48:00.702Z,94.90
2023-02-17T04:49:00.704Z,94.70
2023-02-17T04:50:00.677Z,94.49
2023-02-17T04:51:00.643Z,94.39
2023-02-17T04:52:00.654Z,94.49
2023-02-17T04:53:00.621Z,94.54
2023-02-17T04:54:00.608Z,95.01
2023-02-17T04:55:00.603Z,94.49
2023-02-17T04:56:00.599Z,94.90
2023-02-17T04:57:00.600Z,94.74
2023-02-17T04:58:00.564Z,94.49
2023-02-17T04:59:00.568Z,94.49
2023-02-17T05:00:00.560Z,94.59
2023-02-17T05:01:00.539Z,94.59
2023-02-17T05:02:00.594Z,94.64
2023-02-17T05:03:00.505Z,95.21
2023-02-17T05:04:00.510Z,94.90
2023-02-17T05:05:00.572Z,94.70
2023-02-17T05:06:00.477Z,94.70
2023-02-17T05:07:00.481Z,94.70
2023-02-17T05:08:00.454Z,94.59
2023-02-17T05:09:00.447Z,94.59
2023-02-17T05:10:00.446Z,94.70
2023-02-17T05:11:00.457Z,94.80
2023-02-17T05:12:00.424Z,94.95
2023-02-17T05:13:00.392Z,94.90
2023-02-17T05:14:00.386Z,94.80
2023-02-17T05:15:00.368Z,94.90
2023-02-17T05:16:00.406Z,94.80
2023-02-17T05:17:00.375Z,94.70
2023-02-17T05:18:00.348Z,94.70
2023-02-17T05:19:00.342Z,94.70
2023-02-17T05:20:00.323Z,94.90
2023-02-17T05:21:00.328Z,94.90
2023-02-17T05:22:00.298Z,94.85
2023-02-17T05:23:00.286Z,94.70
2023-02-17T05:24:00.291Z,94.45
2023-02-17T05:25:00.259Z,94.65
2023-02-17T05:26:00.252Z,94.49
2023-02-17T05:27:00.251Z,94.45
2023-02-17T05:28:00.226Z,94.34
2023-02-17T05:29:00.236Z,94.70
2023-02-17T05:30:00.292Z,94.49
2023-02-17T05:31:00.222Z,94.45
2023-02-17T05:32:00.314Z,94.70
2023-02-17T05:33:00.174Z,94.59
2023-02-17T05:34:00.202Z,94.49
2023-02-17T05:35:00.160Z,94.49
2023-02-17T05:36:00.132Z,94.49
2023-02-17T05:37:00.171Z,94.34
2023-02-17T05:38:00.131Z,94.45
2023-02-17T05:39:00.109Z,94.45
2023-02-17T05:40:00.123Z,94.39
2023-02-17T05:41:00.091Z,94.55
2023-02-17T05:42:00.176Z,94.70
2023-02-17T05:43:00.130Z,94.65
2023-02-17T05:44:00.123Z,95.10
2023-02-17T05:45:00.032Z,95.21
2023-02-17T05:46:00.042Z,94.96
2023-02-17T05:47:00.035Z,95.21
2023-02-17T05:48:00.000Z,95.21
2023-02-17T05:48:59.986Z,94.70
2023-02-17T05:50:00.015Z,94.90
2023-02-17T05:51:00.002Z,94.70
2023-02-17T05:51:59.975Z,94.70
2023-02-17T05:53:00.042Z,94.70
2023-02-17T05:54:00.032Z,95.17
2023-02-17T05:55:00.006Z,94.76
2023-02-17T05:55:59.921Z,94.80
2023-02-17T05:57:00.012Z,94.39
2023-02-17T05:57:59.888Z,94.80
2023-02-17T05:58:59.877Z,94.55
2023-02-17T05:59:59.869Z,94.65
2023-02-17T06:00:59.860Z,94.45
2023-02-17T06:01:59.865Z,94.55
2023-02-17T06:02:59.909Z,94.45
2023-02-17T06:03:59.818Z,94.45
2023-02-17T06:04:59.909Z,94.45
2023-02-17T06:05:59.811Z,94.96
2023-02-17T06:06:59.807Z,94.55
2023-02-17T06:07:59.780Z,94.55
2023-02-17T06:08:59.782Z,94.76
2023-02-17T06:09:59.758Z,94.65
2023-02-17T06:10:59.742Z,94.76
2023-02-17T06:11:59.761Z,94.85
2023-02-17T06:12:59.718Z,94.96
2023-02-17T06:13:59.711Z,94.85
2023-02-17T06:14:59.729Z,94.85
2023-02-17T06:15:59.753Z,94.85
2023-02-17T06:17:01.037Z,94.76
2023-02-17T06:17:59.673Z,94.80
2023-02-17T06:18:59.674Z,94.85
2023-02-17T06:19:59.652Z,94.85
2023-02-17T06:20:59.636Z,94.70
2023-02-17T06:21:59.647Z,94.96
2023-02-17T06:22:59.637Z,94.90
2023-02-17T06:23:59.635Z,95.01
2023-02-17T06:24:59.634Z,94.76
2023-02-17T06:25:59.583Z,94.85
2023-02-17T06:26:59.564Z,94.65
2023-02-17T06:27:59.595Z,94.85
2023-02-17T06:28:59.557Z,94.45
2023-02-17T06:29:59.592Z,94.76
2023-02-17T06:30:59.553Z,94.85
2023-02-17T06:31:59.555Z,94.76
2023-02-17T06:32:59.491Z,95.02
2023-02-17T06:33:59.487Z,94.51
2023-02-17T06:34:59.475Z,94.45
2023-02-17T06:35:59.496Z,94.34
2023-02-17T06:36:59.452Z,94.34
2023-02-17T06:37:59.474Z,94.34
2023-02-17T06:38:59.420Z,94.76
2023-02-17T06:39:59.415Z,94.34
2023-02-17T06:40:59.442Z,94.85
2023-02-17T06:41:59.399Z,94.76
2023-02-17T06:42:59.405Z,94.65
2023-02-17T06:43:59.408Z,94.61
2023-02-17T06:44:59.360Z,94.76
2023-02-17T06:45:59.378Z,94.65
2023-02-17T06:46:59.344Z,94.85
2023-02-17T06:47:59.364Z,94.51
2023-02-17T06:48:59.311Z,94.61
2023-02-17T06:49:59.305Z,94.61
2023-02-17T06:50:59.291Z,93.99
2023-02-17T06:51:59.290Z,93.79
2023-02-17T06:52:59.273Z,93.99
2023-02-17T06:53:59.272Z,93.99
2023-02-17T06:54:59.248Z,93.68
2023-02-17T06:55:59.233Z,93.59
2023-02-17T06:56:59.316Z,93.79
2023-02-17T06:57:59.234Z,93.79
2023-02-17T06:58:59.200Z,93.79
2023-02-17T06:59:59.202Z,93.68
2023-02-17T07:00:59.171Z,93.59
2023-02-17T07:02:01.968Z,93.79
2023-02-17T07:02:59.349Z,93.59
2023-02-17T07:03:59.168Z,93.07
2023-02-17T07:04:59.151Z,93.27
2023-02-17T07:05:59.136Z,93.38
2023-02-17T07:06:59.111Z,93.07
2023-02-17T07:07:59.098Z,93.17
2023-02-17T07:08:59.098Z,93.27
2023-02-17T07:09:59.110Z,92.76
2023-02-17T07:10:59.070Z,93.68
2023-02-17T07:11:59.053Z,93.59
2023-02-17T07:12:59.081Z,93.59
2023-02-17T07:13:59.037Z,93.79
2023-02-17T07:14:59.024Z,93.79
2023-02-17T07:15:59.024Z,93.68
2023-02-17T07:16:59.033Z,93.07
2023-02-17T07:17:59.004Z,93.48
2023-02-17T07:18:58.985Z,93.07
2023-02-17T07:19:58.987Z,92.86
2023-02-17T07:20:58.954Z,92.55
2023-02-17T07:21:58.965Z,92.51
2023-02-17T07:22:58.933Z,92.55
2023-02-17T07:23:58.940Z,92.66
2023-02-17T07:24:58.964Z,92.82
2023-02-17T07:25:58.892Z,92.55
2023-02-17T07:26:58.911Z,93.17
2023-02-17T07:27:58.909Z,92.72
2023-02-17T07:28:58.893Z,92.55
2023-02-17T07:29:58.962Z,92.72
2023-02-17T07:30:58.885Z,92.51
2023-02-17T07:31:58.938Z,93.13
2023-02-17T07:32:58.841Z,93.02
2023-02-17T07:33:58.821Z,92.82
2023-02-17T07:34:58.794Z,92.93
2023-02-17T07:35:58.814Z,92.51
2023-02-17T07:36:58.814Z,92.51
2023-02-17T07:37:58.761Z,92.27
2023-02-17T07:38:58.761Z,92.68
2023-02-17T07:39:58.741Z,92.68
2023-02-17T07:40:58.729Z,92.88
2023-02-17T07:41:58.710Z,92.27
2023-02-17T07:42:58.728Z,91.65
2023-02-17T07:43:58.692Z,92.27
2023-02-17T07:44:58.709Z,91.75
2023-02-17T07:45:59.484Z,91.86
2023-02-17T07:46:58.656Z,92.43
2023-02-17T07:47:58.666Z,92.43
2023-02-17T07:48:58.653Z,91.55
2023-02-17T07:49:58.632Z,91.75
2023-02-17T07:50:58.606Z,92.32
2023-02-17T07:51:58.601Z,92.02
2023-02-17T07:52:58.644Z,92.43
2023-02-17T07:53:58.581Z,91.46
2023-02-17T07:54:58.575Z,91.61
2023-02-17T07:55:58.576Z,92.08
2023-02-17T07:56:58.601Z,91.40
2023-02-17T07:57:58.528Z,91.91
2023-02-17T07:58:58.522Z,91.40
2023-02-17T07:59:58.517Z,91.09
2023-02-17T08:00:58.527Z,91.05
2023-02-17T08:01:58.525Z,91.82
2023-02-17T08:02:58.520Z,91.05
2023-02-17T08:03:58.478Z,90.95
2023-02-17T08:04:58.458Z,91.05
2023-02-17T08:05:58.444Z,90.75
2023-02-17T08:06:58.434Z,91.97
2023-02-17T08:07:58.439Z,91.56
2023-02-17T08:08:58.416Z,91.61
2023-02-17T08:09:58.409Z,91.82
2023-02-17T08:10:58.380Z,91.36
2023-02-17T08:11:58.410Z,91.61
2023-02-17T08:12:58.432Z,91.82
2023-02-17T08:13:58.358Z,91.67
2023-02-17T08:14:58.346Z,91.46
2023-02-17T08:15:58.334Z,91.56
2023-02-17T08:16:58.524Z,91.87
2023-02-17T08:17:58.304Z,91.56
2023-02-17T08:18:58.300Z,91.67
2023-02-17T08:20:00.535Z,90.75
2023-02-17T08:20:58.270Z,90.95
2023-02-17T08:21:58.280Z,91.16
2023-02-17T08:22:58.245Z,91.05
2023-02-17T08:23:58.243Z,90.91
2023-02-17T08:24:58.224Z,91.63
2023-02-17T08:25:58.241Z,90.50
2023-02-17T08:26:58.258Z,90.60
2023-02-17T08:27:58.193Z,89.98
2023-02-17T08:28:58.180Z,89.98
2023-02-17T08:29:58.232Z,90.09
2023-02-17T08:30:58.344Z,90.19
2023-02-17T08:31:58.264Z,90.19
2023-02-17T08:32:58.200Z,90.19
2023-02-17T08:33:58.130Z,90.19
2023-02-17T08:34:58.145Z,89.98
2023-02-17T08:35:58.109Z,90.50
2023-02-17T08:36:58.118Z,90.50
2023-02-17T08:37:58.120Z,90.70
2023-02-17T08:38:58.089Z,90.70
2023-02-17T08:39:58.057Z,91.01
2023-02-17T08:40:58.067Z,91.11
2023-02-17T08:41:58.071Z,90.70
2023-02-17T08:42:58.020Z,90.45
2023-02-17T08:43:58.020Z,90.77
2023-02-17T08:44:58.072Z,90.15
2023-02-17T08:45:58.021Z,90.15
2023-02-17T08:46:58.052Z,90.15
2023-02-17T08:47:57.963Z,89.84
2023-02-17T08:48:57.988Z,90.56
2023-02-17T08:49:57.945Z,90.15
2023-02-17T08:50:57.938Z,90.36
2023-02-17T08:51:58.004Z,90.36
2023-02-17T08:52:57.941Z,90.15
2023-02-17T08:53:57.896Z,89.94
2023-02-17T08:54:57.891Z,90.05
2023-02-17T08:55:57.871Z,90.15
2023-02-17T08:56:57.915Z,90.36
2023-02-17T08:57:57.907Z,90.45
2023-02-17T08:58:57.850Z,90.36
2023-02-17T08:59:57.829Z,90.15
2023-02-17T09:00:57.827Z,90.31
2023-02-17T09:01:57.962Z,89.90
2023-02-17T09:02:57.806Z,89.90
2023-02-17T09:03:57.807Z,90.21
2023-02-17T09:04:57.841Z,90.00
2023-02-17T09:05:57.794Z,90.31
2023-02-17T09:06:57.744Z,90.00
2023-02-17T09:07:57.761Z,89.90
2023-02-17T09:08:57.777Z,90.00
2023-02-17T09:09:57.710Z,90.31
2023-02-17T09:10:57.697Z,89.80
2023-02-17T09:11:57.793Z,89.80
2023-02-17T09:12:57.683Z,89.80
2023-02-17T09:13:57.707Z,89.80
2023-02-17T09:14:57.685Z,89.80
2023-02-17T09:15:57.690Z,89.80
2023-02-17T09:16:57.675Z,90.00
2023-02-17T09:17:57.654Z,89.90
2023-02-17T09:18:57.651Z,90.31
2023-02-17T09:19:57.622Z,90.00
2023-02-17T09:20:57.638Z,89.90
2023-02-17T09:21:57.593Z,90.00
2023-02-17T09:22:57.619Z,90.62
2023-02-17T09:23:57.619Z,90.00
2023-02-17T09:24:57.590Z,90.00
2023-02-17T09:25:57.556Z,89.70
2023-02-17T09:26:57.522Z,90.21
2023-02-17T09:27:59.762Z,89.90
2023-02-17T09:28:57.577Z,89.70
2023-02-17T09:29:57.561Z,90.00
2023-02-17T09:30:57.572Z,89.90
2023-02-17T09:31:57.563Z,89.80
2023-02-17T09:32:57.463Z,89.90
2023-02-17T09:33:57.545Z,90.31
2023-02-17T09:34:57.481Z,90.00
2023-02-17T09:35:57.453Z,90.11
2023-02-17T09:36:57.454Z,90.06
2023-02-17T09:37:57.463Z,89.65
2023-02-17T09:38:57.424Z,89.80
2023-02-17T09:39:57.452Z,90.47
2023-02-17T09:40:57.435Z,89.86
2023-02-17T09:41:57.365Z,89.76
2023-02-17T09:42:57.374Z,90.27
2023-02-17T09:43:57.358Z,89.97
2023-02-17T09:44:57.350Z,90.27
2023-02-17T09:45:57.415Z,90.17
2023-02-17T09:47:02.123Z,89.86
2023-02-17T09:47:58.286Z,89.76
2023-02-17T09:48:57.317Z,89.25
2023-02-17T09:49:57.293Z,89.86
2023-02-17T09:50:57.247Z,89.86
2023-02-17T09:51:57.265Z,89.92
2023-02-17T09:52:57.278Z,89.86
2023-02-17T09:53:57.314Z,89.65
2023-02-17T09:54:57.225Z,89.25
2023-02-17T09:55:57.218Z,89.35
2023-02-17T09:56:57.228Z,89.86
2023-02-17T09:57:57.187Z,89.35
2023-02-17T09:58:57.253Z,89.86
2023-02-17T09:59:57.233Z,89.61
2023-02-17T10:00:57.210Z,89.61
2023-02-17T10:01:57.185Z,89.72
2023-02-17T10:02:57.128Z,89.65
2023-02-17T10:03:57.172Z,89.61
2023-02-17T10:04:57.180Z,89.97
2023-02-17T10:05:57.133Z,89.41
2023-02-17T10:06:57.135Z,89.61
2023-02-17T10:07:57.061Z,89.11
2023-02-17T10:08:57.068Z,89.58
2023-02-17T10:09:57.037Z,88.85
2023-02-17T10:10:57.092Z,88.76
2023-02-17T10:11:57.076Z,89.06
2023-02-17T10:12:57.013Z,88.55
2023-02-17T10:13:57.113Z,88.35
2023-02-17T10:14:56.983Z,88.04
2023-02-17T10:15:57.019Z,88.55
2023-02-17T10:16:56.973Z,87.94
2023-02-17T10:17:56.993Z,87.90
2023-02-17T10:18:56.943Z,88.31
2023-02-17T10:19:56.921Z,87.94
2023-02-17T10:20:56.924Z,87.73
2023-02-17T10:21:56.923Z,87.90
2023-02-17T10:22:56.952Z,88.31
2023-02-17T10:23:56.919Z,88.10
2023-02-17T10:24:56.920Z,88.00
2023-02-17T10:25:56.883Z,88.51
2023-02-17T10:26:56.885Z,87.70
2023-02-17T10:27:56.856Z,88.61
2023-02-17T10:28:56.900Z,87.90
2023-02-17T10:29:56.882Z,88.00
2023-02-17T10:30:57.151Z,87.70
2023-02-17T10:31:57.010Z,88.41
2023-02-17T10:32:56.862Z,88.31
2023-02-17T10:33:56.877Z,88.41
2023-02-17T10:34:56.795Z,87.70
2023-02-17T10:35:56.741Z,88.20
2023-02-17T10:36:56.822Z,88.00
2023-02-17T10:37:56.788Z,87.90
2023-02-17T10:38:56.710Z,88.20
2023-02-17T10:39:56.691Z,88.37
2023-02-17T10:40:56.701Z,88.00
2023-02-17T10:41:56.702Z,87.08
2023-02-17T10:42:56.716Z,87.45
2023-02-17T10:43:56.650Z,87.45
2023-02-17T10:44:56.689Z,87.96
2023-02-17T10:45:56.627Z,87.14
2023-02-17T10:46:56.682Z,87.24
2023-02-17T10:47:56.628Z,86.94
2023-02-17T10:48:56.615Z,87.04
2023-02-17T10:49:56.601Z,86.94
2023-02-17T10:50:56.568Z,87.45
2023-02-17T10:51:56.573Z,87.65
2023-02-17T10:52:56.546Z,87.45
2023-02-17T10:53:56.590Z,87.65
2023-02-17T10:54:56.539Z,88.06
2023-02-17T10:55:56.515Z,87.55
2023-02-17T10:56:56.548Z,87.45
2023-02-17T10:57:56.492Z,87.00
2023-02-17T10:58:56.481Z,87.45
2023-02-17T10:59:56.493Z,87.65
2023-02-17T11:00:56.637Z,87.71
2023-02-17T11:01:56.440Z,87.41
2023-02-17T11:02:56.450Z,87.45
2023-02-17T11:03:56.451Z,87.10
2023-02-17T11:04:56.423Z,87.04
2023-02-17T11:05:56.406Z,87.14
2023-02-17T11:06:56.393Z,87.30
2023-02-17T11:07:56.400Z,87.51
2023-02-17T11:08:56.370Z,87.00
2023-02-17T11:09:56.352Z,87.10
2023-02-17T11:10:56.341Z,86.90
2023-02-17T11:11:56.350Z,87.10
2023-02-17T11:12:56.453Z,87.00
2023-02-17T11:13:56.340Z,87.41
2023-02-17T11:14:56.309Z,87.51
2023-02-17T11:15:56.337Z,87.71
2023-02-17T11:16:56.277Z,87.71
2023-02-17T11:17:56.261Z,87.82
2023-02-17T11:18:56.249Z,87.30
2023-02-17T11:19:56.242Z,87.61
2023-02-17T11:20:56.231Z,88.12
2023-02-17T11:21:56.251Z,88.32
2023-02-17T11:22:56.208Z,87.71
2023-02-17T11:23:56.200Z,87.71
2023-02-17T11:24:56.189Z,88.22
2023-02-17T11:25:56.185Z,87.71
2023-02-17T11:26:56.186Z,88.02
2023-02-17T11:27:56.153Z,88.22
2023-02-17T11:28:56.180Z,87.88
2023-02-17T11:29:56.141Z,87.98
2023-02-17T11:30:56.215Z,87.26
2023-02-17T11:31:56.261Z,87.47
2023-02-17T11:32:56.147Z,87.16
2023-02-17T11:33:57.044Z,87.23
2023-02-17T11:34:56.083Z,87.32
2023-02-17T11:35:56.062Z,87.43
2023-02-17T11:36:56.077Z,86.98
2023-02-17T11:37:56.040Z,86.37
2023-02-17T11:38:56.034Z,86.37
2023-02-17T11:39:56.041Z,86.27
2023-02-17T11:40:56.012Z,85.86
2023-02-17T11:41:56.075Z,85.75
2023-02-17T11:42:56.115Z,85.35
2023-02-17T11:43:55.995Z,85.72
2023-02-17T11:44:55.994Z,85.41
2023-02-17T11:45:56.112Z,85.51
2023-02-17T11:46:55.948Z,85.27
2023-02-17T11:47:55.929Z,84.97
2023-02-17T11:48:55.950Z,84.86
2023-02-17T11:49:55.926Z,84.66
2023-02-17T11:50:55.898Z,84.72
2023-02-17T11:51:55.909Z,84.21
2023-02-17T11:52:55.869Z,84.25
2023-02-17T11:53:55.862Z,84.35
2023-02-17T11:54:55.850Z,84.45
2023-02-17T11:55:55.843Z,84.35
2023-02-17T11:56:55.852Z,84.45
2023-02-17T11:57:55.836Z,84.15
2023-02-17T11:58:55.805Z,84.56
2023-02-17T11:59:55.794Z,84.66
2023-02-17T12:00:55.813Z,84.66
2023-02-17T12:01:55.809Z,84.35
2023-02-17T12:02:55.837Z,84.76
2023-02-17T12:03:55.749Z,84.70
2023-02-17T12:04:55.819Z,84.86
2023-02-17T12:05:55.757Z,84.86
2023-02-17T12:06:55.721Z,84.76
2023-02-17T12:07:55.754Z,85.17
2023-02-17T12:08:55.690Z,85.78
2023-02-17T12:09:55.701Z,84.97
2023-02-17T12:10:55.669Z,84.76
2023-02-17T12:11:55.673Z,84.66
2023-02-17T12:12:55.705Z,84.45
2023-02-17T12:13:55.649Z,84.31
2023-02-17T12:14:55.842Z,83.81
2023-02-17T12:15:55.610Z,83.70
2023-02-17T12:16:55.663Z,83.76
2023-02-17T12:17:55.584Z,83.22
2023-02-17T12:18:55.629Z,83.59
2023-02-17T12:19:55.582Z,83.08
2023-02-17T12:20:55.585Z,82.06
2023-02-17T12:21:55.563Z,82.23
2023-02-17T12:22:55.550Z,80.94
2023-02-17T12:23:55.549Z,81.82
2023-02-17T12:24:55.504Z,80.77
2023-02-17T12:25:55.509Z,80.26
2023-02-17T12:26:55.493Z,79.51
2023-02-17T12:27:55.506Z,78.91
2023-02-17T12:28:55.482Z,79.47
2023-02-17T12:29:55.554Z,79.17
2023-02-17T12:30:55.676Z,79.34
2023-02-17T12:31:55.588Z,77.88
2023-02-17T12:32:55.444Z,77.98
2023-02-17T12:33:55.411Z,77.54
2023-02-17T12:34:55.416Z,76.39
2023-02-17T12:35:55.392Z,76.23
2023-02-17T12:36:55.433Z,76.03
2023-02-17T12:37:55.405Z,76.43
2023-02-17T12:38:55.351Z,76.29
2023-02-17T12:39:55.337Z,75.79
2023-02-17T12:40:55.325Z,76.39
2023-02-17T12:41:55.331Z,75.45
2023-02-17T12:42:55.334Z,75.24
2023-02-17T12:43:55.291Z,74.94
2023-02-17T12:44:55.277Z,75.24
2023-02-17T12:45:55.311Z,74.63
2023-02-17T12:46:55.258Z,75.34
2023-02-17T12:47:55.280Z,75.71
2023-02-17T12:48:55.252Z,75.01
2023-02-17T12:49:55.227Z,74.84
2023-02-17T12:50:55.267Z,74.77
2023-02-17T12:51:55.205Z,75.58